sensor_id;sensor_type;location;lat;lon;timestamp;P1;durP1;ratioP1;P2;durP2;ratioP2
6095;SDS011;25081;42.698;23.298;2023-08-31T00:01:28;8.17;;;1.83;;
6095;SDS011;25081;42.698;23.298;2023-08-31T00:03:39;3.03;;;2.00;;
6095;SDS011;25081;42.698;23.298;2023-08-31T00:05:49;2.90;;;1.60;;
6095;SDS011;25081;42.698;23.298;2023-08-31T00:08:00;5.90;;;2.70;;
6095;SDS011;25081;42.698;23.298;2023-08-31T00:10:11;3.73;;;2.30;;
6095;SDS011;25081;42.698;23.298;2023-08-31T00:12:21;3.33;;;2.00;;
6095;SDS011;25081;42.698;23.298;2023-08-31T00:14:32;4.27;;;2.13;;
6095;SDS011;25081;42.698;23.298;2023-08-31T00:16:43;4.83;;;2.20;;
6095;SDS011;25081;42.698;23.298;2023-08-31T00:18:53;4.33;;;2.67;;
6095;SDS011;25081;42.698;23.298;2023-08-31T00:21:04;9.63;;;2.30;;
6095;SDS011;25081;42.698;23.298;2023-08-31T00:23:14;5.90;;;2.00;;
6095;SDS011;25081;42.698;23.298;2023-08-31T00:25:25;3.07;;;2.00;;
6095;SDS011;25081;42.698;23.298;2023-08-31T00:27:35;3.50;;;2.10;;
6095;SDS011;25081;42.698;23.298;2023-08-31T00:29:46;3.60;;;2.20;;
6095;SDS011;25081;42.698;23.298;2023-08-31T00:31:56;5.50;;;1.90;;
6095;SDS011;25081;42.698;23.298;2023-08-31T00:34:07;3.60;;;2.10;;
6095;SDS011;25081;42.698;23.298;2023-08-31T00:36:17;4.40;;;2.10;;
6095;SDS011;25081;42.698;23.298;2023-08-31T00:38:30;3.73;;;2.23;;
6095;SDS011;25081;42.698;23.298;2023-08-31T00:40:41;3.47;;;1.93;;
6095;SDS011;25081;42.698;23.298;2023-08-31T00:42:51;3.67;;;2.20;;
6095;SDS011;25081;42.698;23.298;2023-08-31T00:45:02;3.03;;;1.70;;
6095;SDS011;25081;42.698;23.298;2023-08-31T00:47:13;3.03;;;2.00;;
6095;SDS011;25081;42.698;23.298;2023-08-31T00:49:23;4.00;;;2.23;;
6095;SDS011;25081;42.698;23.298;2023-08-31T00:51:34;3.80;;;2.17;;
6095;SDS011;25081;42.698;23.298;2023-08-31T00:53:44;3.07;;;2.00;;
6095;SDS011;25081;42.698;23.298;2023-08-31T00:55:55;3.40;;;2.40;;
6095;SDS011;25081;42.698;23.298;2023-08-31T00:58:05;3.27;;;1.87;;
6095;SDS011;25081;42.698;23.298;2023-08-31T01:00:16;2.50;;;1.70;;
6095;SDS011;25081;42.698;23.298;2023-08-31T01:02:30;4.50;;;1.97;;
6095;SDS011;25081;42.698;23.298;2023-08-31T01:04:41;2.63;;;1.83;;
6095;SDS011;25081;42.698;23.298;2023-08-31T01:07:11;3.03;;;2.27;;
6095;SDS011;25081;42.698;23.298;2023-08-31T01:09:24;4.10;;;2.00;;
6095;SDS011;25081;42.698;23.298;2023-08-31T01:11:39;3.67;;;2.40;;
6095;SDS011;25081;42.698;23.298;2023-08-31T01:13:48;3.10;;;1.67;;
6095;SDS011;25081;42.698;23.298;2023-08-31T01:15:58;3.57;;;2.40;;
6095;SDS011;25081;42.698;23.298;2023-08-31T01:18:06;3.10;;;2.10;;
6095;SDS011;25081;42.698;23.298;2023-08-31T01:20:28;3.03;;;2.23;;
6095;SDS011;25081;42.698;23.298;2023-08-31T01:22:39;3.17;;;2.00;;
6095;SDS011;25081;42.698;23.298;2023-08-31T01:24:49;3.23;;;2.00;;
6095;SDS011;25081;42.698;23.298;2023-08-31T01:27:00;6.90;;;2.50;;
6095;SDS011;25081;42.698;23.298;2023-08-31T01:29:10;3.43;;;2.27;;
6095;SDS011;25081;42.698;23.298;2023-08-31T01:31:21;3.00;;;1.87;;
6095;SDS011;25081;42.698;23.298;2023-08-31T01:36:35;3.43;;;2.13;;
6095;SDS011;25081;42.698;23.298;2023-08-31T01:38:55;3.63;;;1.90;;
6095;SDS011;25081;42.698;23.298;2023-08-31T01:41:06;3.40;;;1.73;;
6095;SDS011;25081;42.698;23.298;2023-08-31T01:43:16;4.13;;;2.53;;
6095;SDS011;25081;42.698;23.298;2023-08-31T01:45:26;3.17;;;1.73;;
6095;SDS011;25081;42.698;23.298;2023-08-31T01:47:37;4.93;;;2.10;;
6095;SDS011;25081;42.698;23.298;2023-08-31T01:49:48;4.53;;;2.30;;
6095;SDS011;25081;42.698;23.298;2023-08-31T01:51:58;3.13;;;2.17;;
6095;SDS011;25081;42.698;23.298;2023-08-31T01:54:09;2.67;;;1.77;;
6095;SDS011;25081;42.698;23.298;2023-08-31T01:56:19;4.70;;;2.40;;
6095;SDS011;25081;42.698;23.298;2023-08-31T01:58:30;3.00;;;2.00;;
6095;SDS011;25081;42.698;23.298;2023-08-31T02:00:41;3.13;;;1.83;;
6095;SDS011;25081;42.698;23.298;2023-08-31T02:02:51;2.80;;;1.90;;
6095;SDS011;25081;42.698;23.298;2023-08-31T02:05:02;2.90;;;1.90;;
6095;SDS011;25081;42.698;23.298;2023-08-31T02:07:13;3.20;;;2.17;;
6095;SDS011;25081;42.698;23.298;2023-08-31T02:09:23;4.03;;;1.90;;
6095;SDS011;25081;42.698;23.298;2023-08-31T02:11:34;2.47;;;1.70;;
6095;SDS011;25081;42.698;23.298;2023-08-31T02:13:44;4.20;;;2.00;;
6095;SDS011;25081;42.698;23.298;2023-08-31T02:16:00;4.63;;;2.10;;
6095;SDS011;25081;42.698;23.298;2023-08-31T02:18:13;2.77;;;1.80;;
6095;SDS011;25081;42.698;23.298;2023-08-31T02:20:24;3.07;;;2.17;;
6095;SDS011;25081;42.698;23.298;2023-08-31T02:22:34;2.87;;;2.07;;
6095;SDS011;25081;42.698;23.298;2023-08-31T02:24:45;3.47;;;2.50;;
6095;SDS011;25081;42.698;23.298;2023-08-31T02:26:56;2.60;;;1.90;;
6095;SDS011;25081;42.698;23.298;2023-08-31T02:29:06;4.90;;;2.33;;
6095;SDS011;25081;42.698;23.298;2023-08-31T02:31:17;2.83;;;2.00;;
6095;SDS011;25081;42.698;23.298;2023-08-31T02:33:29;3.43;;;2.20;;
6095;SDS011;25081;42.698;23.298;2023-08-31T02:35:40;3.37;;;1.70;;
6095;SDS011;25081;42.698;23.298;2023-08-31T02:37:50;5.27;;;2.00;;
6095;SDS011;25081;42.698;23.298;2023-08-31T02:40:01;2.90;;;1.90;;
6095;SDS011;25081;42.698;23.298;2023-08-31T02:42:13;3.33;;;2.00;;
6095;SDS011;25081;42.698;23.298;2023-08-31T02:44:23;4.90;;;2.17;;
6095;SDS011;25081;42.698;23.298;2023-08-31T02:46:53;4.47;;;2.03;;
6095;SDS011;25081;42.698;23.298;2023-08-31T02:49:04;3.60;;;2.23;;
6095;SDS011;25081;42.698;23.298;2023-08-31T02:51:15;3.63;;;2.07;;
6095;SDS011;25081;42.698;23.298;2023-08-31T02:53:25;3.77;;;2.53;;
6095;SDS011;25081;42.698;23.298;2023-08-31T02:55:35;3.37;;;2.20;;
6095;SDS011;25081;42.698;23.298;2023-08-31T02:57:46;4.07;;;2.03;;
6095;SDS011;25081;42.698;23.298;2023-08-31T02:59:56;4.40;;;2.30;;
6095;SDS011;25081;42.698;23.298;2023-08-31T03:02:12;2.90;;;1.70;;
6095;SDS011;25081;42.698;23.298;2023-08-31T03:04:23;5.20;;;2.37;;
6095;SDS011;25081;42.698;23.298;2023-08-31T03:06:33;3.37;;;2.20;;
6095;SDS011;25081;42.698;23.298;2023-08-31T03:08:44;2.90;;;2.10;;
6095;SDS011;25081;42.698;23.298;2023-08-31T03:10:54;3.33;;;1.97;;
6095;SDS011;25081;42.698;23.298;2023-08-31T03:13:08;3.20;;;1.90;;
6095;SDS011;25081;42.698;23.298;2023-08-31T03:15:16;3.63;;;1.80;;
6095;SDS011;25081;42.698;23.298;2023-08-31T03:17:26;4.13;;;1.83;;
6095;SDS011;25081;42.698;23.298;2023-08-31T03:19:37;3.07;;;1.93;;
6095;SDS011;25081;42.698;23.298;2023-08-31T03:21:47;3.20;;;2.03;;
6095;SDS011;25081;42.698;23.298;2023-08-31T03:23:57;18.83;;;14.47;;
6095;SDS011;25081;42.698;23.298;2023-08-31T03:26:27;4.20;;;3.00;;
6095;SDS011;25081;42.698;23.298;2023-08-31T03:28:38;4.77;;;3.53;;
6095;SDS011;25081;42.698;23.298;2023-08-31T03:30:54;3.03;;;2.30;;
6095;SDS011;25081;42.698;23.298;2023-08-31T03:33:05;3.03;;;2.00;;
6095;SDS011;25081;42.698;23.298;2023-08-31T03:35:18;2.73;;;2.10;;
6095;SDS011;25081;42.698;23.298;2023-08-31T03:37:37;4.40;;;2.07;;
6095;SDS011;25081;42.698;23.298;2023-08-31T03:39:48;3.63;;;2.00;;
6095;SDS011;25081;42.698;23.298;2023-08-31T03:41:58;3.80;;;2.17;;
6095;SDS011;25081;42.698;23.298;2023-08-31T03:44:09;3.33;;;2.10;;
6095;SDS011;25081;42.698;23.298;2023-08-31T03:46:19;4.30;;;2.40;;
6095;SDS011;25081;42.698;23.298;2023-08-31T03:48:39;5.90;;;2.33;;
6095;SDS011;25081;42.698;23.298;2023-08-31T03:50:50;3.70;;;2.30;;
6095;SDS011;25081;42.698;23.298;2023-08-31T03:53:00;3.93;;;2.33;;
6095;SDS011;25081;42.698;23.298;2023-08-31T03:55:10;3.90;;;2.40;;
6095;SDS011;25081;42.698;23.298;2023-08-31T03:57:21;3.80;;;2.30;;
6095;SDS011;25081;42.698;23.298;2023-08-31T03:59:35;4.70;;;2.03;;
6095;SDS011;25081;42.698;23.298;2023-08-31T04:01:45;3.67;;;2.40;;
6095;SDS011;25081;42.698;23.298;2023-08-31T04:03:55;4.27;;;2.17;;
6095;SDS011;25081;42.698;23.298;2023-08-31T04:06:06;3.50;;;2.17;;
6095;SDS011;25081;42.698;23.298;2023-08-31T04:08:16;2.60;;;1.70;;
6095;SDS011;25081;42.698;23.298;2023-08-31T04:10:27;3.60;;;2.10;;
6095;SDS011;25081;42.698;23.298;2023-08-31T04:12:37;2.80;;;2.03;;
6095;SDS011;25081;42.698;23.298;2023-08-31T04:14:48;6.77;;;2.10;;
6095;SDS011;25081;42.698;23.298;2023-08-31T04:16:58;11.60;;;6.97;;
6095;SDS011;25081;42.698;23.298;2023-08-31T04:19:09;11.53;;;8.47;;
6095;SDS011;25081;42.698;23.298;2023-08-31T04:21:19;14.93;;;9.20;;
6095;SDS011;25081;42.698;23.298;2023-08-31T04:23:32;10.80;;;9.53;;
6095;SDS011;25081;42.698;23.298;2023-08-31T04:26:02;14.80;;;12.30;;
6095;SDS011;25081;42.698;23.298;2023-08-31T04:28:19;16.50;;;12.40;;
6095;SDS011;25081;42.698;23.298;2023-08-31T04:30:30;14.90;;;12.00;;
6095;SDS011;25081;42.698;23.298;2023-08-31T04:32:43;14.20;;;10.83;;
6095;SDS011;25081;42.698;23.298;2023-08-31T04:34:54;18.40;;;9.10;;
6095;SDS011;25081;42.698;23.298;2023-08-31T04:37:04;9.70;;;6.80;;
6095;SDS011;25081;42.698;23.298;2023-08-31T04:39:15;10.00;;;7.17;;
6095;SDS011;25081;42.698;23.298;2023-08-31T04:41:25;10.03;;;7.30;;
6095;SDS011;25081;42.698;23.298;2023-08-31T04:43:36;9.63;;;6.90;;
6095;SDS011;25081;42.698;23.298;2023-08-31T04:45:46;7.97;;;5.77;;
6095;SDS011;25081;42.698;23.298;2023-08-31T04:48:00;9.27;;;6.67;;
6095;SDS011;25081;42.698;23.298;2023-08-31T04:50:12;13.23;;;5.90;;
6095;SDS011;25081;42.698;23.298;2023-08-31T04:52:22;7.20;;;5.57;;
6095;SDS011;25081;42.698;23.298;2023-08-31T04:54:33;7.90;;;4.27;;
6095;SDS011;25081;42.698;23.298;2023-08-31T04:56:43;5.50;;;3.67;;
6095;SDS011;25081;42.698;23.298;2023-08-31T04:58:53;7.63;;;4.70;;
6095;SDS011;25081;42.698;23.298;2023-08-31T05:01:04;6.73;;;3.63;;
6095;SDS011;25081;42.698;23.298;2023-08-31T05:03:15;6.60;;;4.30;;
6095;SDS011;25081;42.698;23.298;2023-08-31T05:05:25;6.63;;;4.23;;
6095;SDS011;25081;42.698;23.298;2023-08-31T05:07:36;6.87;;;4.43;;
6095;SDS011;25081;42.698;23.298;2023-08-31T05:09:46;7.57;;;4.40;;
6095;SDS011;25081;42.698;23.298;2023-08-31T05:12:00;5.20;;;4.10;;
6095;SDS011;25081;42.698;23.298;2023-08-31T05:14:08;5.43;;;4.10;;
6095;SDS011;25081;42.698;23.298;2023-08-31T05:16:18;5.77;;;4.07;;
6095;SDS011;25081;42.698;23.298;2023-08-31T05:18:29;7.97;;;4.13;;
6095;SDS011;25081;42.698;23.298;2023-08-31T05:20:39;5.30;;;4.00;;
6095;SDS011;25081;42.698;23.298;2023-08-31T05:23:02;5.83;;;3.60;;
6095;SDS011;25081;42.698;23.298;2023-08-31T05:25:16;6.10;;;3.43;;
6095;SDS011;25081;42.698;23.298;2023-08-31T05:27:27;4.63;;;3.20;;
6095;SDS011;25081;42.698;23.298;2023-08-31T05:29:37;3.70;;;2.70;;
6095;SDS011;25081;42.698;23.298;2023-08-31T05:31:48;3.90;;;2.90;;
6095;SDS011;25081;42.698;23.298;2023-08-31T05:33:59;5.80;;;3.27;;
6095;SDS011;25081;42.698;23.298;2023-08-31T05:36:09;4.40;;;2.80;;
6095;SDS011;25081;42.698;23.298;2023-08-31T05:38:20;5.83;;;2.40;;
6095;SDS011;25081;42.698;23.298;2023-08-31T05:40:30;6.10;;;3.30;;
6095;SDS011;25081;42.698;23.298;2023-08-31T05:42:41;4.30;;;2.83;;
6095;SDS011;25081;42.698;23.298;2023-08-31T05:44:51;5.70;;;2.90;;
6095;SDS011;25081;42.698;23.298;2023-08-31T05:47:07;4.73;;;2.67;;
6095;SDS011;25081;42.698;23.298;2023-08-31T05:49:18;9.03;;;3.60;;
6095;SDS011;25081;42.698;23.298;2023-08-31T05:51:28;4.47;;;3.40;;
6095;SDS011;25081;42.698;23.298;2023-08-31T05:53:39;5.10;;;3.30;;
6095;SDS011;25081;42.698;23.298;2023-08-31T05:55:50;4.30;;;3.00;;
6095;SDS011;25081;42.698;23.298;2023-08-31T05:58:00;4.87;;;3.10;;
6095;SDS011;25081;42.698;23.298;2023-08-31T06:00:12;5.70;;;3.07;;
6095;SDS011;25081;42.698;23.298;2023-08-31T06:02:23;3.83;;;3.30;;
6095;SDS011;25081;42.698;23.298;2023-08-31T06:04:34;6.27;;;3.13;;
6095;SDS011;25081;42.698;23.298;2023-08-31T06:06:45;4.20;;;3.10;;
6095;SDS011;25081;42.698;23.298;2023-08-31T06:09:07;5.03;;;3.63;;
6095;SDS011;25081;42.698;23.298;2023-08-31T06:11:14;5.23;;;3.33;;
6095;SDS011;25081;42.698;23.298;2023-08-31T06:13:25;6.07;;;3.70;;
6095;SDS011;25081;42.698;23.298;2023-08-31T06:15:36;5.30;;;4.03;;
6095;SDS011;25081;42.698;23.298;2023-08-31T06:17:46;6.70;;;3.93;;
6095;SDS011;25081;42.698;23.298;2023-08-31T06:19:57;5.00;;;3.53;;
6095;SDS011;25081;42.698;23.298;2023-08-31T06:22:08;7.77;;;4.20;;
6095;SDS011;25081;42.698;23.298;2023-08-31T06:24:18;5.20;;;3.70;;
6095;SDS011;25081;42.698;23.298;2023-08-31T06:26:29;11.67;;;4.07;;
6095;SDS011;25081;42.698;23.298;2023-08-31T06:28:39;5.03;;;4.00;;
6095;SDS011;25081;42.698;23.298;2023-08-31T06:30:50;6.03;;;3.63;;
6095;SDS011;25081;42.698;23.298;2023-08-31T06:33:01;6.53;;;3.70;;
6095;SDS011;25081;42.698;23.298;2023-08-31T06:35:11;5.97;;;3.33;;
6095;SDS011;25081;42.698;23.298;2023-08-31T06:37:22;6.10;;;3.53;;
6095;SDS011;25081;42.698;23.298;2023-08-31T06:39:32;5.13;;;3.47;;
6095;SDS011;25081;42.698;23.298;2023-08-31T06:41:43;5.00;;;3.20;;
6095;SDS011;25081;42.698;23.298;2023-08-31T06:43:54;8.30;;;3.70;;
6095;SDS011;25081;42.698;23.298;2023-08-31T06:46:04;7.20;;;4.00;;
6095;SDS011;25081;42.698;23.298;2023-08-31T06:48:15;6.00;;;3.30;;
6095;SDS011;25081;42.698;23.298;2023-08-31T06:50:25;4.70;;;3.00;;
6095;SDS011;25081;42.698;23.298;2023-08-31T06:52:36;5.17;;;3.20;;
6095;SDS011;25081;42.698;23.298;2023-08-31T06:54:46;5.50;;;3.40;;
6095;SDS011;25081;42.698;23.298;2023-08-31T06:56:57;6.00;;;3.33;;
6095;SDS011;25081;42.698;23.298;2023-08-31T06:59:07;13.43;;;3.57;;
6095;SDS011;25081;42.698;23.298;2023-08-31T07:01:18;6.10;;;3.20;;
6095;SDS011;25081;42.698;23.298;2023-08-31T07:03:28;3.90;;;2.83;;
6095;SDS011;25081;42.698;23.298;2023-08-31T07:05:41;5.30;;;3.73;;
6095;SDS011;25081;42.698;23.298;2023-08-31T07:07:53;6.00;;;2.83;;
6095;SDS011;25081;42.698;23.298;2023-08-31T07:10:07;4.93;;;2.70;;
6095;SDS011;25081;42.698;23.298;2023-08-31T07:12:18;3.70;;;2.50;;
6095;SDS011;25081;42.698;23.298;2023-08-31T07:14:31;4.03;;;2.50;;
6095;SDS011;25081;42.698;23.298;2023-08-31T07:16:41;5.00;;;2.93;;
6095;SDS011;25081;42.698;23.298;2023-08-31T07:18:52;4.83;;;2.10;;
6095;SDS011;25081;42.698;23.298;2023-08-31T07:21:02;3.40;;;2.13;;
6095;SDS011;25081;42.698;23.298;2023-08-31T07:23:13;4.27;;;2.03;;
6095;SDS011;25081;42.698;23.298;2023-08-31T07:25:24;2.77;;;1.70;;
6095;SDS011;25081;42.698;23.298;2023-08-31T07:27:34;3.67;;;1.80;;
6095;SDS011;25081;42.698;23.298;2023-08-31T07:29:45;3.10;;;1.90;;
6095;SDS011;25081;42.698;23.298;2023-08-31T07:31:55;3.37;;;1.93;;
6095;SDS011;25081;42.698;23.298;2023-08-31T07:34:06;4.20;;;2.20;;
6095;SDS011;25081;42.698;23.298;2023-08-31T07:36:16;4.10;;;2.30;;
6095;SDS011;25081;42.698;23.298;2023-08-31T07:38:27;2.97;;;1.90;;
6095;SDS011;25081;42.698;23.298;2023-08-31T07:40:37;10.20;;;2.30;;
6095;SDS011;25081;42.698;23.298;2023-08-31T07:42:48;7.00;;;2.77;;
6095;SDS011;25081;42.698;23.298;2023-08-31T07:44:59;3.47;;;1.90;;
6095;SDS011;25081;42.698;23.298;2023-08-31T07:49:28;2.80;;;2.10;;
6095;SDS011;25081;42.698;23.298;2023-08-31T07:51:41;5.93;;;2.07;;
6095;SDS011;25081;42.698;23.298;2023-08-31T07:53:51;2.60;;;1.80;;
6095;SDS011;25081;42.698;23.298;2023-08-31T07:56:02;3.77;;;1.90;;
6095;SDS011;25081;42.698;23.298;2023-08-31T07:58:13;3.97;;;1.90;;
6095;SDS011;25081;42.698;23.298;2023-08-31T08:00:23;3.17;;;1.77;;
6095;SDS011;25081;42.698;23.298;2023-08-31T08:02:34;4.60;;;2.07;;
6095;SDS011;25081;42.698;23.298;2023-08-31T08:04:46;3.97;;;2.13;;
6095;SDS011;25081;42.698;23.298;2023-08-31T08:06:56;4.20;;;1.90;;
6095;SDS011;25081;42.698;23.298;2023-08-31T08:09:07;3.80;;;2.10;;
6095;SDS011;25081;42.698;23.298;2023-08-31T08:11:17;3.07;;;1.90;;
6095;SDS011;25081;42.698;23.298;2023-08-31T08:13:28;3.17;;;2.20;;
6095;SDS011;25081;42.698;23.298;2023-08-31T08:15:40;4.00;;;1.80;;
6095;SDS011;25081;42.698;23.298;2023-08-31T08:17:51;3.00;;;2.17;;
6095;SDS011;25081;42.698;23.298;2023-08-31T08:20:02;3.70;;;1.90;;
6095;SDS011;25081;42.698;23.298;2023-08-31T08:22:12;3.17;;;1.87;;
6095;SDS011;25081;42.698;23.298;2023-08-31T08:24:23;3.73;;;2.00;;
6095;SDS011;25081;42.698;23.298;2023-08-31T08:26:36;3.07;;;2.23;;
6095;SDS011;25081;42.698;23.298;2023-08-31T08:28:46;3.40;;;2.13;;
6095;SDS011;25081;42.698;23.298;2023-08-31T08:31:01;3.40;;;2.07;;
6095;SDS011;25081;42.698;23.298;2023-08-31T08:33:12;3.10;;;2.03;;
6095;SDS011;25081;42.698;23.298;2023-08-31T08:35:22;4.63;;;3.20;;
6095;SDS011;25081;42.698;23.298;2023-08-31T08:37:32;4.80;;;2.90;;
6095;SDS011;25081;42.698;23.298;2023-08-31T08:39:43;3.83;;;2.50;;
6095;SDS011;25081;42.698;23.298;2023-08-31T08:41:53;3.93;;;2.83;;
6095;SDS011;25081;42.698;23.298;2023-08-31T08:44:05;4.43;;;2.80;;
6095;SDS011;25081;42.698;23.298;2023-08-31T08:46:16;5.23;;;3.50;;
6095;SDS011;25081;42.698;23.298;2023-08-31T08:48:26;4.13;;;3.10;;
6095;SDS011;25081;42.698;23.298;2023-08-31T08:50:37;4.93;;;3.23;;
6095;SDS011;25081;42.698;23.298;2023-08-31T08:52:48;4.10;;;2.87;;
6095;SDS011;25081;42.698;23.298;2023-08-31T08:54:58;4.70;;;3.10;;
6095;SDS011;25081;42.698;23.298;2023-08-31T08:57:09;4.00;;;3.10;;
6095;SDS011;25081;42.698;23.298;2023-08-31T08:59:24;4.20;;;3.00;;
6095;SDS011;25081;42.698;23.298;2023-08-31T09:01:36;4.43;;;3.20;;
6095;SDS011;25081;42.698;23.298;2023-08-31T09:03:47;4.10;;;3.30;;
6095;SDS011;25081;42.698;23.298;2023-08-31T09:05:57;3.90;;;2.80;;
6095;SDS011;25081;42.698;23.298;2023-08-31T09:08:10;4.00;;;3.10;;
6095;SDS011;25081;42.698;23.298;2023-08-31T09:10:21;3.87;;;3.07;;
6095;SDS011;25081;42.698;23.298;2023-08-31T09:12:31;4.93;;;3.47;;
6095;SDS011;25081;42.698;23.298;2023-08-31T09:14:57;3.63;;;2.67;;
6095;SDS011;25081;42.698;23.298;2023-08-31T09:17:08;4.00;;;2.70;;
6095;SDS011;25081;42.698;23.298;2023-08-31T09:19:19;4.60;;;2.80;;
6095;SDS011;25081;42.698;23.298;2023-08-31T09:21:35;4.53;;;3.07;;
6095;SDS011;25081;42.698;23.298;2023-08-31T09:23:48;4.00;;;2.97;;
6095;SDS011;25081;42.698;23.298;2023-08-31T09:26:05;4.30;;;3.00;;
6095;SDS011;25081;42.698;23.298;2023-08-31T09:28:16;4.63;;;3.07;;
6095;SDS011;25081;42.698;23.298;2023-08-31T09:30:30;4.83;;;2.93;;
6095;SDS011;25081;42.698;23.298;2023-08-31T09:32:44;4.57;;;2.87;;
6095;SDS011;25081;42.698;23.298;2023-08-31T09:34:56;5.10;;;2.80;;
6095;SDS011;25081;42.698;23.298;2023-08-31T09:37:07;5.60;;;3.50;;
6095;SDS011;25081;42.698;23.298;2023-08-31T09:39:18;6.30;;;3.10;;
6095;SDS011;25081;42.698;23.298;2023-08-31T09:41:28;4.03;;;2.67;;
6095;SDS011;25081;42.698;23.298;2023-08-31T09:43:39;4.80;;;3.60;;
6095;SDS011;25081;42.698;23.298;2023-08-31T09:45:50;3.53;;;2.47;;
6095;SDS011;25081;42.698;23.298;2023-08-31T09:48:01;4.30;;;2.77;;
6095;SDS011;25081;42.698;23.298;2023-08-31T09:50:11;5.53;;;3.10;;
6095;SDS011;25081;42.698;23.298;2023-08-31T09:52:22;4.73;;;3.20;;
6095;SDS011;25081;42.698;23.298;2023-08-31T09:54:33;5.20;;;3.87;;
6095;SDS011;25081;42.698;23.298;2023-08-31T09:56:44;4.50;;;2.90;;
6095;SDS011;25081;42.698;23.298;2023-08-31T09:58:54;4.57;;;2.83;;
6095;SDS011;25081;42.698;23.298;2023-08-31T10:01:04;6.80;;;3.30;;
6095;SDS011;25081;42.698;23.298;2023-08-31T10:03:15;6.60;;;3.10;;
6095;SDS011;25081;42.698;23.298;2023-08-31T10:05:25;5.13;;;3.50;;
6095;SDS011;25081;42.698;23.298;2023-08-31T10:07:36;4.77;;;2.87;;
6095;SDS011;25081;42.698;23.298;2023-08-31T10:09:46;4.97;;;3.23;;
6095;SDS011;25081;42.698;23.298;2023-08-31T10:11:56;4.23;;;3.23;;
6095;SDS011;25081;42.698;23.298;2023-08-31T10:14:07;4.37;;;3.10;;
6095;SDS011;25081;42.698;23.298;2023-08-31T10:16:17;4.60;;;2.90;;
6095;SDS011;25081;42.698;23.298;2023-08-31T10:18:28;3.70;;;2.73;;
6095;SDS011;25081;42.698;23.298;2023-08-31T10:20:40;5.20;;;3.70;;
6095;SDS011;25081;42.698;23.298;2023-08-31T10:22:51;4.10;;;3.03;;
6095;SDS011;25081;42.698;23.298;2023-08-31T10:25:02;4.97;;;3.57;;
6095;SDS011;25081;42.698;23.298;2023-08-31T10:27:19;5.87;;;3.80;;
6095;SDS011;25081;42.698;23.298;2023-08-31T10:29:33;5.37;;;3.67;;
6095;SDS011;25081;42.698;23.298;2023-08-31T10:31:42;5.03;;;3.60;;
6095;SDS011;25081;42.698;23.298;2023-08-31T10:33:56;4.87;;;3.00;;
6095;SDS011;25081;42.698;23.298;2023-08-31T10:36:09;5.03;;;3.17;;
6095;SDS011;25081;42.698;23.298;2023-08-31T10:38:27;5.87;;;3.63;;
6095;SDS011;25081;42.698;23.298;2023-08-31T10:40:37;5.77;;;3.53;;
6095;SDS011;25081;42.698;23.298;2023-08-31T10:42:48;4.70;;;2.90;;
6095;SDS011;25081;42.698;23.298;2023-08-31T10:45:06;5.60;;;3.37;;
6095;SDS011;25081;42.698;23.298;2023-08-31T10:47:17;4.20;;;2.80;;
6095;SDS011;25081;42.698;23.298;2023-08-31T10:49:27;4.23;;;3.00;;
6095;SDS011;25081;42.698;23.298;2023-08-31T10:51:38;3.90;;;3.00;;
6095;SDS011;25081;42.698;23.298;2023-08-31T10:53:48;5.13;;;3.33;;
6095;SDS011;25081;42.698;23.298;2023-08-31T10:55:58;5.17;;;3.00;;
6095;SDS011;25081;42.698;23.298;2023-08-31T10:58:10;4.70;;;3.17;;
6095;SDS011;25081;42.698;23.298;2023-08-31T11:03:01;4.30;;;2.90;;
6095;SDS011;25081;42.698;23.298;2023-08-31T11:05:15;5.50;;;3.33;;
6095;SDS011;25081;42.698;23.298;2023-08-31T11:07:25;4.27;;;2.77;;
6095;SDS011;25081;42.698;23.298;2023-08-31T11:09:36;4.33;;;2.90;;
6095;SDS011;25081;42.698;23.298;2023-08-31T11:11:47;3.30;;;2.40;;
6095;SDS011;25081;42.698;23.298;2023-08-31T11:13:57;5.07;;;3.10;;
6095;SDS011;25081;42.698;23.298;2023-08-31T11:16:08;4.87;;;3.00;;
6095;SDS011;25081;42.698;23.298;2023-08-31T11:18:18;3.63;;;2.57;;
6095;SDS011;25081;42.698;23.298;2023-08-31T11:20:30;4.00;;;3.27;;
6095;SDS011;25081;42.698;23.298;2023-08-31T11:22:41;4.27;;;2.90;;
6095;SDS011;25081;42.698;23.298;2023-08-31T11:24:51;4.17;;;2.67;;
6095;SDS011;25081;42.698;23.298;2023-08-31T11:27:02;7.83;;;4.00;;
6095;SDS011;25081;42.698;23.298;2023-08-31T11:29:13;5.33;;;3.10;;
6095;SDS011;25081;42.698;23.298;2023-08-31T11:31:24;4.80;;;2.97;;
6095;SDS011;25081;42.698;23.298;2023-08-31T11:33:35;4.23;;;3.07;;
6095;SDS011;25081;42.698;23.298;2023-08-31T11:35:45;5.53;;;3.00;;
6095;SDS011;25081;42.698;23.298;2023-08-31T11:37:56;4.23;;;2.77;;
6095;SDS011;25081;42.698;23.298;2023-08-31T11:40:08;4.17;;;2.97;;
6095;SDS011;25081;42.698;23.298;2023-08-31T11:42:19;3.63;;;2.33;;
6095;SDS011;25081;42.698;23.298;2023-08-31T11:46:50;4.03;;;2.53;;
6095;SDS011;25081;42.698;23.298;2023-08-31T11:49:00;4.77;;;2.77;;
6095;SDS011;25081;42.698;23.298;2023-08-31T11:51:11;5.53;;;2.60;;
6095;SDS011;25081;42.698;23.298;2023-08-31T11:53:22;4.53;;;2.80;;
6095;SDS011;25081;42.698;23.298;2023-08-31T11:55:33;3.80;;;2.40;;
6095;SDS011;25081;42.698;23.298;2023-08-31T11:57:48;4.60;;;3.03;;
6095;SDS011;25081;42.698;23.298;2023-08-31T11:59:59;5.70;;;2.60;;
6095;SDS011;25081;42.698;23.298;2023-08-31T12:02:09;4.50;;;2.40;;
6095;SDS011;25081;42.698;23.298;2023-08-31T12:04:20;6.70;;;2.60;;
6095;SDS011;25081;42.698;23.298;2023-08-31T12:06:31;4.47;;;3.00;;
6095;SDS011;25081;42.698;23.298;2023-08-31T12:08:42;3.40;;;2.47;;
6095;SDS011;25081;42.698;23.298;2023-08-31T12:10:53;4.50;;;2.80;;
6095;SDS011;25081;42.698;23.298;2023-08-31T12:13:10;5.57;;;3.10;;
6095;SDS011;25081;42.698;23.298;2023-08-31T12:15:20;3.97;;;2.33;;
6095;SDS011;25081;42.698;23.298;2023-08-31T12:17:31;3.33;;;2.40;;
6095;SDS011;25081;42.698;23.298;2023-08-31T12:19:41;3.87;;;2.60;;
6095;SDS011;25081;42.698;23.298;2023-08-31T12:21:52;3.67;;;2.90;;
6095;SDS011;25081;42.698;23.298;2023-08-31T12:24:04;3.40;;;2.10;;
6095;SDS011;25081;42.698;23.298;2023-08-31T12:26:14;4.70;;;3.30;;
6095;SDS011;25081;42.698;23.298;2023-08-31T12:28:25;5.33;;;2.87;;
6095;SDS011;25081;42.698;23.298;2023-08-31T12:30:35;5.80;;;2.87;;
6095;SDS011;25081;42.698;23.298;2023-08-31T12:32:46;3.57;;;2.27;;
6095;SDS011;25081;42.698;23.298;2023-08-31T12:34:57;3.43;;;2.37;;
6095;SDS011;25081;42.698;23.298;2023-08-31T12:37:07;4.50;;;2.70;;
6095;SDS011;25081;42.698;23.298;2023-08-31T12:39:17;5.07;;;2.53;;
6095;SDS011;25081;42.698;23.298;2023-08-31T12:41:28;4.33;;;2.60;;
6095;SDS011;25081;42.698;23.298;2023-08-31T12:43:40;6.43;;;2.70;;
6095;SDS011;25081;42.698;23.298;2023-08-31T12:45:51;4.37;;;2.60;;
6095;SDS011;25081;42.698;23.298;2023-08-31T12:48:01;5.70;;;3.17;;
6095;SDS011;25081;42.698;23.298;2023-08-31T12:50:13;4.13;;;2.43;;
6095;SDS011;25081;42.698;23.298;2023-08-31T12:52:23;3.60;;;2.50;;
6095;SDS011;25081;42.698;23.298;2023-08-31T12:54:34;3.80;;;2.43;;
6095;SDS011;25081;42.698;23.298;2023-08-31T12:56:44;3.93;;;2.13;;
6095;SDS011;25081;42.698;23.298;2023-08-31T12:58:55;4.33;;;2.67;;
6095;SDS011;25081;42.698;23.298;2023-08-31T13:01:05;5.10;;;2.70;;
6095;SDS011;25081;42.698;23.298;2023-08-31T13:03:16;4.40;;;2.60;;
6095;SDS011;25081;42.698;23.298;2023-08-31T13:05:27;3.23;;;2.10;;
6095;SDS011;25081;42.698;23.298;2023-08-31T13:07:41;3.80;;;2.30;;
6095;SDS011;25081;42.698;23.298;2023-08-31T13:09:52;3.60;;;2.60;;
6095;SDS011;25081;42.698;23.298;2023-08-31T13:12:03;4.57;;;2.90;;
6095;SDS011;25081;42.698;23.298;2023-08-31T13:14:14;4.80;;;2.80;;
6095;SDS011;25081;42.698;23.298;2023-08-31T13:16:25;3.20;;;2.20;;
6095;SDS011;25081;42.698;23.298;2023-08-31T13:18:35;5.07;;;2.37;;
6095;SDS011;25081;42.698;23.298;2023-08-31T13:20:49;3.90;;;2.30;;
6095;SDS011;25081;42.698;23.298;2023-08-31T13:23:00;4.10;;;2.33;;